Time;durP1;ratioP1;P1;durP2;ratioP2;P2;SDS_P1;SDS_P2;PMS_P1;PMS_P2;Temp;Humidity;BMP_temperature;BMP_pressure;BME280_temperature;BME280_humidity;BME280_pressure;Samples;Min_cycle;Max_cycle;Signal;HPM_P1;HPM_P2
2023/12/16 00:00:22;;;;;;;3.28;1.90;;;;;;;;;;5077481;28;20070;-20
2023/12/16 00:02:48;;;;;;;2.25;1.60;;;;;;;;;;5077591;28;20032;-18
2023/12/16 00:05:14;;;;;;;6.95;2.08;;;;;;;;;;5078001;28;20040;-21
2023/12/16 00:07:40;;;;;;;3.83;2.38;;;;;;;;;;5077432;28;20048;-21
2023/12/16 00:10:09;;;;;;;4.63;1.77;;;;;;;;;;5077435;28;20126;-19
2023/12/16 00:12:35;;;;;;;1.88;1.42;;;;;;;;;;5077648;28;20035;-17
2023/12/16 00:15:01;;;;;;;7.35;2.13;;;;;;;;;;5077240;28;20025;-20
2023/12/16 00:17:28;;;;;;;3.50;2.08;;;;;;;;;;5077856;28;20033;-22
2023/12/16 00:19:54;;;;;;;4.55;1.55;;;;;;;;;;5077509;28;20132;-21
2023/12/16 00:22:20;;;;;;;3.15;1.73;;;;;;;;;;5077467;28;20024;-22
2023/12/16 00:24:46;;;;;;;3.35;1.85;;;;;;;;;;5077144;28;20052;-20
2023/12/16 00:27:12;;;;;;;2.05;1.77;;;;;;;;;;5077639;28;20109;-20
2023/12/16 00:29:38;;;;;;;5.72;1.55;;;;;;;;;;5077215;28;20027;-21
2023/12/16 00:32:04;;;;;;;5.30;1.95;;;;;;;;;;5077067;28;20020;-22
2023/12/16 00:34:33;;;;;;;3.97;1.55;;;;;;;;;;5076794;28;20098;-20
2023/12/16 00:37:00;;;;;;;6.45;2.13;;;;;;;;;;5076916;28;20055;-21
2023/12/16 00:39:26;;;;;;;7.53;2.20;;;;;;;;;;5076839;28;20081;-20
2023/12/16 00:41:52;;;;;;;4.90;2.40;;;;;;;;;;5076867;28;20025;-20
2023/12/16 00:44:18;;;;;;;3.70;1.30;;;;;;;;;;5076997;28;20024;-20
2023/12/16 00:46:44;;;;;;;3.30;1.88;;;;;;;;;;5076614;28;20029;-21
2023/12/16 00:49:10;;;;;;;3.30;1.98;;;;;;;;;;5076736;28;20021;-19
2023/12/16 00:51:37;;;;;;;2.85;1.70;;;;;;;;;;5077215;28;20021;-23
2023/12/16 00:54:03;;;;;;;11.98;2.53;;;;;;;;;;5076660;28;20107;-23
2023/12/16 00:56:29;;;;;;;3.42;2.05;;;;;;;;;;5076893;28;20450;-18
2023/12/16 00:58:56;;;;;;;2.92;2.20;;;;;;;;;;5076533;28;20029;-28
2023/12/16 01:01:23;;;;;;;3.60;1.70;;;;;;;;;;5076388;28;20032;-17
2023/12/16 01:03:49;;;;;;;2.83;1.67;;;;;;;;;;5076523;28;20052;-22
2023/12/16 01:06:15;;;;;;;3.92;2.15;;;;;;;;;;5076338;28;20024;-20
2023/12/16 01:08:42;;;;;;;3.30;2.65;;;;;;;;;;5076387;28;20028;-18
2023/12/16 01:11:11;;;;;;;3.20;2.05;;;;;;;;;;5076517;28;20029;-20
2023/12/16 01:13:38;;;;;;;3.47;1.52;;;;;;;;;;5076512;28;20028;-20
2023/12/16 01:16:04;;;;;;;2.65;1.80;;;;;;;;;;5076376;28;20021;-20
2023/12/16 01:18:30;;;;;;;3.92;2.20;;;;;;;;;;5076138;28;20044;-21
2023/12/16 01:20:56;;;;;;;5.65;1.85;;;;;;;;;;5076070;28;20028;-19
2023/12/16 01:23:22;;;;;;;3.83;1.98;;;;;;;;;;5076063;28;20032;-20
2023/12/16 01:25:48;;;;;;;3.00;1.50;;;;;;;;;;5075884;28;20020;-21
2023/12/16 01:28:15;;;;;;;2.50;1.83;;;;;;;;;;5074932;28;20020;-18
2023/12/16 01:30:41;;;;;;;4.85;1.83;;;;;;;;;;5076028;28;20025;-22
2023/12/16 01:33:07;;;;;;;7.68;2.05;;;;;;;;;;5076104;28;20033;-22
2023/12/16 01:35:34;;;;;;;2.97;1.52;;;;;;;;;;5075782;28;20309;-20
2023/12/16 01:38:00;;;;;;;3.42;1.60;;;;;;;;;;5076264;28;20035;-21
2023/12/16 01:40:27;;;;;;;3.20;2.50;;;;;;;;;;5076209;28;20028;-22
2023/12/16 01:42:55;;;;;;;3.13;1.63;;;;;;;;;;5075846;28;20040;-21
2023/12/16 01:45:21;;;;;;;3.88;2.15;;;;;;;;;;5074698;28;20046;-20
2023/12/16 01:47:48;;;;;;;2.70;1.75;;;;;;;;;;5075546;28;20025;-20
2023/12/16 01:50:15;;;;;;;3.30;2.05;;;;;;;;;;5075501;28;20032;-20
2023/12/16 01:52:42;;;;;;;3.10;1.55;;;;;;;;;;5074855;28;20473;-18
2023/12/16 01:55:10;;;;;;;2.13;1.73;;;;;;;;;;5074535;28;20039;-24
2023/12/16 01:57:37;;;;;;;4.28;2.10;;;;;;;;;;5075882;28;20471;-18
2023/12/16 02:00:03;;;;;;;5.57;2.95;;;;;;;;;;5075444;28;20533;-21
2023/12/16 02:02:30;;;;;;;3.05;1.60;;;;;;;;;;5075256;28;20035;-19
2023/12/16 02:04:56;;;;;;;3.35;1.73;;;;;;;;;;5074935;28;20076;-23
2023/12/16 02:07:22;;;;;;;1.92;1.80;;;;;;;;;;5075190;28;20032;-19
2023/12/16 02:09:49;;;;;;;2.28;1.73;;;;;;;;;;5075637;28;20093;-19
2023/12/16 02:12:15;;;;;;;3.28;1.73;;;;;;;;;;5075048;28;20039;-21
2023/12/16 02:14:41;;;;;;;3.35;1.60;;;;;;;;;;5075613;28;20031;-20
2023/12/16 02:17:07;;;;;;;1.63;1.50;;;;;;;;;;5075267;28;20050;-20
2023/12/16 02:19:33;;;;;;;2.47;1.60;;;;;;;;;;5075005;28;20024;-21
2023/12/16 02:22:00;;;;;;;2.38;1.77;;;;;;;;;;5075218;28;20020;-21
2023/12/16 02:24:26;;;;;;;3.42;2.08;;;;;;;;;;5075114;28;20087;-24
2023/12/16 02:26:53;;;;;;;3.83;1.70;;;;;;;;;;5075121;28;20024;-22
2023/12/16 02:29:19;;;;;;;2.92;1.63;;;;;;;;;;5075083;28;20035;-21
2023/12/16 02:31:45;;;;;;;1.80;1.50;;;;;;;;;;5075077;28;20020;-22
2023/12/16 02:34:11;;;;;;;2.63;1.30;;;;;;;;;;5075068;28;20025;-25
2023/12/16 02:36:37;;;;;;;3.50;1.73;;;;;;;;;;5074793;28;20108;-21
2023/12/16 02:39:04;;;;;;;3.75;1.50;;;;;;;;;;5074964;28;20103;-21
2023/12/16 02:41:30;;;;;;;1.90;1.48;;;;;;;;;;5074986;28;20409;-19
2023/12/16 02:43:56;;;;;;;3.15;1.55;;;;;;;;;;5074722;28;20024;-20
2023/12/16 02:46:22;;;;;;;1.92;1.73;;;;;;;;;;5074524;28;20477;-20
2023/12/16 02:48:49;;;;;;;3.53;1.90;;;;;;;;;;5074689;28;20044;-21
2023/12/16 02:51:18;;;;;;;2.65;1.50;;;;;;;;;;5074636;28;20370;-21
2023/12/16 02:53:45;;;;;;;2.22;1.52;;;;;;;;;;5075400;28;20024;-21
2023/12/16 02:56:11;;;;;;;4.07;1.92;;;;;;;;;;5074478;28;20028;-20
2023/12/16 02:58:38;;;;;;;4.30;2.60;;;;;;;;;;5074847;28;20028;-19
2023/12/16 03:01:04;;;;;;;2.17;1.70;;;;;;;;;;5074595;28;20028;-21
2023/12/16 03:03:30;;;;;;;2.53;1.70;;;;;;;;;;5074497;28;20064;-21
2023/12/16 03:05:56;;;;;;;5.75;1.85;;;;;;;;;;5074398;28;20056;-18
2023/12/16 03:08:22;;;;;;;2.05;1.50;;;;;;;;;;5075016;28;20035;-22
2023/12/16 03:10:48;;;;;;;6.07;2.00;;;;;;;;;;5074483;28;20400;-21
2023/12/16 03:13:14;;;;;;;2.63;1.90;;;;;;;;;;5074932;28;20082;-22
2023/12/16 03:15:41;;;;;;;2.47;1.95;;;;;;;;;;5074410;28;20089;-20
2023/12/16 03:18:07;;;;;;;2.22;1.63;;;;;;;;;;5074915;28;20063;-21
2023/12/16 03:20:33;;;;;;;3.60;2.17;;;;;;;;;;5074365;28;20028;-23
2023/12/16 03:22:59;;;;;;;3.60;2.13;;;;;;;;;;5074327;28;20363;-21
2023/12/16 03:25:25;;;;;;;2.65;1.60;;;;;;;;;;5074216;28;20021;-21
2023/12/16 03:27:51;;;;;;;6.80;2.25;;;;;;;;;;5074274;28;20029;-21
2023/12/16 03:30:17;;;;;;;2.90;1.40;;;;;;;;;;5074464;28;20024;-20
2023/12/16 03:32:44;;;;;;;1.67;1.58;;;;;;;;;;5073267;28;20507;-21
2023/12/16 03:35:10;;;;;;;1.85;1.50;;;;;;;;;;5074479;28;20059;-21
2023/12/16 03:37:36;;;;;;;3.08;2.00;;;;;;;;;;5074156;28;20078;-19
2023/12/16 03:40:03;;;;;;;2.13;1.65;;;;;;;;;;5074464;28;20421;-22
2023/12/16 03:42:29;;;;;;;2.92;1.88;;;;;;;;;;5074095;28;20036;-21
2023/12/16 03:44:55;;;;;;;6.10;1.98;;;;;;;;;;5073936;28;20116;-19
2023/12/16 03:47:22;;;;;;;4.25;2.13;;;;;;;;;;5074629;28;20013;-18
2023/12/16 03:49:48;;;;;;;3.20;1.85;;;;;;;;;;5074313;28;20385;-19
2023/12/16 03:52:14;;;;;;;1.88;1.50;;;;;;;;;;5074335;28;20027;-18
2023/12/16 03:54:40;;;;;;;1.40;1.30;;;;;;;;;;5074038;28;20051;-20
2023/12/16 03:57:07;;;;;;;5.95;1.88;;;;;;;;;;5073980;28;20028;-19
2023/12/16 03:59:33;;;;;;;1.73;1.20;;;;;;;;;;5073888;28;20056;-24
2023/12/16 04:01:59;;;;;;;2.55;1.40;;;;;;;;;;5072955;28;20017;-21
2023/12/16 04:04:26;;;;;;;3.22;1.70;;;;;;;;;;5073770;28;20043;-19
2023/12/16 04:06:52;;;;;;;2.83;2.00;;;;;;;;;;5074080;28;20025;-22
2023/12/16 04:09:18;;;;;;;3.83;1.70;;;;;;;;;;5076144;28;20027;-22
2023/12/16 04:11:50;;;;;;;2.00;1.65;;;;;;;;;;5077712;28;20021;-18
2023/12/16 04:14:17;;;;;;;2.50;1.70;;;;;;;;;;5077306;28;20343;-18
2023/12/16 04:16:43;;;;;;;1.70;1.50;;;;;;;;;;5077357;28;20024;-20
2023/12/16 04:19:10;;;;;;;1.98;1.30;;;;;;;;;;5077307;28;20039;-20
2023/12/16 04:21:37;;;;;;;2.78;1.65;;;;;;;;;;5077531;28;20028;-18
2023/12/16 04:24:03;;;;;;;1.95;1.80;;;;;;;;;;5077155;28;20467;-20
2023/12/16 04:26:29;;;;;;;1.70;1.50;;;;;;;;;;5077106;28;20029;-18
2023/12/16 04:28:55;;;;;;;1.60;1.45;;;;;;;;;;5077064;28;20452;-20
2023/12/16 04:31:22;;;;;;;3.55;1.60;;;;;;;;;;5077011;28;20029;-23
2023/12/16 04:33:49;;;;;;;2.50;1.83;;;;;;;;;;5077294;28;20032;-22
2023/12/16 04:36:16;;;;;;;3.33;1.70;;;;;;;;;;5076964;28;20028;-20
2023/12/16 04:38:42;;;;;;;1.67;1.27;;;;;;;;;;5077239;28;20086;-18
2023/12/16 04:41:12;;;;;;;2.75;1.42;;;;;;;;;;5076920;28;20359;-20
2023/12/16 04:43:38;;;;;;;3.08;1.92;;;;;;;;;;5076825;28;20028;-20
2023/12/16 04:46:04;;;;;;;3.63;1.75;;;;;;;;;;5076922;28;20037;-21
2023/12/16 04:48:30;;;;;;;2.78;2.35;;;;;;;;;;5076805;28;20016;-21
2023/12/16 04:50:57;;;;;;;2.30;1.58;;;;;;;;;;5076704;28;20040;-19
2023/12/16 04:53:23;;;;;;;1.85;1.48;;;;;;;;;;5077207;28;20044;-20
2023/12/16 04:55:49;;;;;;;2.05;1.25;;;;;;;;;;5076898;28;20082;-21
2023/12/16 04:58:16;;;;;;;3.25;1.90;;;;;;;;;;5076611;28;20029;-21
2023/12/16 05:00:42;;;;;;;1.77;1.67;;;;;;;;;;5076478;28;20062;-18
2023/12/16 05:03:08;;;;;;;2.47;1.55;;;;;;;;;;5076310;28;20040;-22
2023/12/16 05:05:34;;;;;;;3.13;1.52;;;;;;;;;;5076398;28;20117;-22
2023/12/16 05:08:01;;;;;;;2.17;1.95;;;;;;;;;;5076340;28;20060;-21
2023/12/16 05:10:27;;;;;;;2.53;1.55;;;;;;;;;;5076323;28;20029;-21
2023/12/16 05:12:53;;;;;;;1.98;1.30;;;;;;;;;;5076578;28;20390;-20
2023/12/16 05:15:19;;;;;;;1.25;1.15;;;;;;;;;;5076349;28;20097;-22
2023/12/16 05:17:45;;;;;;;3.05;1.88;;;;;;;;;;5076715;28;20111;-18
2023/12/16 05:20:11;;;;;;;2.88;1.60;;;;;;;;;;5074991;28;20418;-19
2023/12/16 05:22:38;;;;;;;1.98;1.75;;;;;;;;;;5076371;28;20027;-21
2023/12/16 05:25:04;;;;;;;2.95;1.60;;;;;;;;;;5076189;28;20028;-20
2023/12/16 05:27:30;;;;;;;1.70;1.42;;;;;;;;;;5075976;28;20500;-19
2023/12/16 05:30:00;;;;;;;3.65;1.73;;;;;;;;;;5075844;28;20099;-23
2023/12/16 05:32:26;;;;;;;1.88;1.30;;;;;;;;;;5076190;28;20025;-20
2023/12/16 05:34:52;;;;;;;1.73;1.42;;;;;;;;;;5076325;28;20043;-21
2023/12/16 05:37:19;;;;;;;1.60;1.42;;;;;;;;;;5075827;28;20028;-20
2023/12/16 05:39:45;;;;;;;2.50;1.65;;;;;;;;;;5075758;28;20059;-20
2023/12/16 05:42:12;;;;;;;3.17;1.40;;;;;;;;;;5075725;28;20024;-20
2023/12/16 05:44:38;;;;;;;1.45;1.30;;;;;;;;;;5075504;28;20024;-21
2023/12/16 05:47:04;;;;;;;2.05;1.60;;;;;;;;;;5075572;28;20086;-18
2023/12/16 05:49:30;;;;;;;3.30;1.40;;;;;;;;;;5075563;28;20020;-24
2023/12/16 05:51:56;;;;;;;2.67;1.73;;;;;;;;;;5075722;28;20075;-20
2023/12/16 05:54:25;;;;;;;1.73;1.30;;;;;;;;;;5075440;28;20023;-18
2023/12/16 05:56:51;;;;;;;4.10;1.60;;;;;;;;;;5075423;28;20017;-21
2023/12/16 05:59:18;;;;;;;2.35;1.55;;;;;;;;;;5075227;28;20025;-22
2023/12/16 06:01:44;;;;;;;1.92;1.60;;;;;;;;;;5075366;28;20363;-20
2023/12/16 06:04:10;;;;;;;2.85;1.80;;;;;;;;;;5075177;28;20052;-24
2023/12/16 06:06:37;;;;;;;3.10;1.52;;;;;;;;;;5075129;28;20047;-19
2023/12/16 06:09:03;;;;;;;2.75;1.50;;;;;;;;;;5074208;28;20162;-19
2023/12/16 06:11:29;;;;;;;1.58;1.33;;;;;;;;;;5075703;28;20025;-23
2023/12/16 06:13:55;;;;;;;1.48;1.38;;;;;;;;;;5075072;28;20035;-20
2023/12/16 06:16:23;;;;;;;2.22;1.50;;;;;;;;;;5075066;28;20060;-19
2023/12/16 06:18:50;;;;;;;2.33;1.83;;;;;;;;;;5075029;28;20090;-21
2023/12/16 06:21:16;;;;;;;2.15;1.95;;;;;;;;;;5074999;28;20400;-23
2023/12/16 06:23:42;;;;;;;1.42;1.33;;;;;;;;;;5075480;28;20036;-22
2023/12/16 06:26:09;;;;;;;2.25;1.80;;;;;;;;;;5074890;28;20470;-21
2023/12/16 06:28:35;;;;;;;3.45;1.30;;;;;;;;;;5075124;28;20031;-19
2023/12/16 06:31:01;;;;;;;2.20;1.73;;;;;;;;;;5074447;28;20044;-23
2023/12/16 06:33:27;;;;;;;2.35;1.63;;;;;;;;;;5075392;28;20020;-26
2023/12/16 06:35:54;;;;;;;1.60;1.42;;;;;;;;;;5075086;28;20461;-20
2023/12/16 06:38:20;;;;;;;3.95;2.72;;;;;;;;;;5075040;28;20033;-22
2023/12/16 06:40:46;;;;;;;2.63;1.50;;;;;;;;;;5074976;28;20091;-24
2023/12/16 06:43:12;;;;;;;3.70;1.80;;;;;;;;;;5074685;28;20028;-21
2023/12/16 06:45:39;;;;;;;3.03;1.75;;;;;;;;;;5074557;28;20336;-22
2023/12/16 06:48:05;;;;;;;3.13;1.50;;;;;;;;;;5074741;28;20020;-19
2023/12/16 06:50:31;;;;;;;2.72;1.73;;;;;;;;;;5074912;28;20039;-20
2023/12/16 06:52:58;;;;;;;2.22;1.33;;;;;;;;;;5074837;28;20351;-21
2023/12/16 06:55:24;;;;;;;2.47;1.85;;;;;;;;;;5074612;28;20024;-19
2023/12/16 06:57:50;;;;;;;2.13;1.48;;;;;;;;;;5074579;28;20025;-24
2023/12/16 07:00:16;;;;;;;1.63;1.50;;;;;;;;;;5074506;28;20025;-24
2023/12/16 07:02:43;;;;;;;4.03;1.85;;;;;;;;;;5074813;28;20036;-20
2023/12/16 07:05:10;;;;;;;2.80;1.73;;;;;;;;;;5074703;28;20051;-23
2023/12/16 07:07:36;;;;;;;2.20;1.90;;;;;;;;;;5074952;28;20450;-21
2023/12/16 07:10:03;;;;;;;1.88;1.38;;;;;;;;;;5074450;28;20513;-18
2023/12/16 07:12:29;;;;;;;3.10;1.38;;;;;;;;;;5074684;28;20410;-22
2023/12/16 07:14:55;;;;;;;1.63;1.48;;;;;;;;;;5074344;28;20021;-23
2023/12/16 07:17:22;;;;;;;2.55;1.75;;;;;;;;;;5074337;28;20440;-18
2023/12/16 07:19:48;;;;;;;1.77;1.60;;;;;;;;;;5074652;28;20021;-20
2023/12/16 07:22:17;;;;;;;2.88;1.88;;;;;;;;;;5074591;28;20447;-20
2023/12/16 07:24:45;;;;;;;2.65;1.95;;;;;;;;;;5074210;28;20039;-22
2023/12/16 07:27:11;;;;;;;2.35;2.15;;;;;;;;;;5074199;28;20456;-18
2023/12/16 07:29:37;;;;;;;2.17;1.85;;;;;;;;;;5074122;28;20032;-20
2023/12/16 07:32:04;;;;;;;2.22;1.50;;;;;;;;;;5074234;28;20021;-22
2023/12/16 07:34:30;;;;;;;1.77;1.55;;;;;;;;;;5074192;28;20017;-20
2023/12/16 07:36:56;;;;;;;2.75;1.55;;;;;;;;;;5074474;28;20044;-23
2023/12/16 07:39:23;;;;;;;1.90;1.80;;;;;;;;;;5074420;28;20375;-18
2023/12/16 07:41:49;;;;;;;2.65;1.67;;;;;;;;;;5074132;28;20452;-20
2023/12/16 07:44:15;;;;;;;2.63;1.67;;;;;;;;;;5076366;28;20336;-21
2023/12/16 07:46:41;;;;;;;1.77;1.65;;;;;;;;;;5077842;28;20035;-22
2023/12/16 07:49:08;;;;;;;1.38;1.17;;;;;;;;;;5077836;28;20020;-23
2023/12/16 07:51:36;;;;;;;4.20;2.05;;;;;;;;;;5078033;28;20051;-23
2023/12/16 07:54:02;;;;;;;2.53;1.85;;;;;;;;;;5078121;28;20340;-21
2023/12/16 07:56:28;;;;;;;2.97;1.95;;;;;;;;;;5077639;28;20060;-19
2023/12/16 07:58:56;;;;;;;1.77;1.65;;;;;;;;;;5077954;28;20422;-21
2023/12/16 08:01:23;;;;;;;2.88;1.63;;;;;;;;;;5077557;28;20036;-22
2023/12/16 08:03:49;;;;;;;1.88;1.75;;;;;;;;;;5077636;28;20044;-22
2023/12/16 08:06:16;;;;;;;2.33;1.50;;;;;;;;;;5077439;28;20372;-19
2023/12/16 08:08:42;;;;;;;3.83;1.98;;;;;;;;;;5078021;28;20043;-20
2023/12/16 08:11:09;;;;;;;4.15;1.60;;;;;;;;;;5077708;28;20096;-18
2023/12/16 08:13:36;;;;;;;2.60;1.65;;;;;;;;;;5077435;28;20108;-19
2023/12/16 08:16:04;;;;;;;2.75;1.73;;;;;;;;;;5077576;28;20344;-23
2023/12/16 08:18:31;;;;;;;2.78;1.33;;;;;;;;;;5077579;28;20032;-20
2023/12/16 08:20:57;;;;;;;1.23;1.15;;;;;;;;;;5077828;28;20031;-21
2023/12/16 08:23:23;;;;;;;1.77;1.50;;;;;;;;;;5077233;28;20439;-18
2023/12/16 08:25:49;;;;;;;2.05;1.85;;;;;;;;;;5077159;28;20035;-23
2023/12/16 08:28:16;;;;;;;1.75;1.40;;;;;;;;;;5077407;28;20394;-18
2023/12/16 08:30:43;;;;;;;2.38;1.50;;;;;;;;;;5077048;28;20040;-20
2023/12/16 08:33:10;;;;;;;2.20;1.60;;;;;;;;;;5077082;28;20324;-21
2023/12/16 08:35:36;;;;;;;1.60;1.38;;;;;;;;;;5076037;28;20021;-18
2023/12/16 08:38:03;;;;;;;3.42;1.40;;;;;;;;;;5076959;28;20051;-21
2023/12/16 08:40:29;;;;;;;2.45;1.50;;;;;;;;;;5077500;28;20040;-18
2023/12/16 08:42:56;;;;;;;2.75;2.45;;;;;;;;;;5076903;28;20052;-19
2023/12/16 08:45:22;;;;;;;3.00;1.25;;;;;;;;;;5076878;28;20036;-22
2023/12/16 08:47:48;;;;;;;1.80;1.35;;;;;;;;;;5075805;28;20025;-19
2023/12/16 08:50:14;;;;;;;2.40;2.08;;;;;;;;;;5077009;28;20059;-21
2023/12/16 08:52:42;;;;;;;2.92;1.40;;;;;;;;;;5076726;28;20021;-20
2023/12/16 08:55:08;;;;;;;2.53;1.63;;;;;;;;;;5076582;28;20039;-17
2023/12/16 08:57:34;;;;;;;1.52;1.27;;;;;;;;;;5076608;28;20036;-20
2023/12/16 09:00:00;;;;;;;1.55;1.27;;;;;;;;;;5076761;28;20051;-17
2023/12/16 09:02:26;;;;;;;1.70;1.40;;;;;;;;;;5076514;28;20371;-22
2023/12/16 09:04:52;;;;;;;2.28;1.10;;;;;;;;;;5076210;28;20052;-20
2023/12/16 09:07:19;;;;;;;1.70;1.23;;;;;;;;;;5076415;28;20044;-20
2023/12/16 09:09:45;;;;;;;3.05;1.55;;;;;;;;;;5076592;28;20362;-19
2023/12/16 09:12:12;;;;;;;1.85;1.55;;;;;;;;;;5076629;28;20029;-20
2023/12/16 09:14:38;;;;;;;2.65;1.95;;;;;;;;;;5076476;28;20356;-21
2023/12/16 09:17:04;;;;;;;2.40;1.70;;;;;;;;;;5076462;28;20038;-20
2023/12/16 09:19:30;;;;;;;1.80;1.40;;;;;;;;;;5076209;28;20048;-21
2023/12/16 09:21:57;;;;;;;1.75;1.40;;;;;;;;;;5076620;28;20086;-20
2023/12/16 09:24:23;;;;;;;1.85;1.25;;;;;;;;;;5076110;28;20356;-19
2023/12/16 09:26:49;;;;;;;1.52;1.42;;;;;;;;;;5075986;28;20024;-20
2023/12/16 09:29:15;;;;;;;1.52;1.42;;;;;;;;;;5075915;28;20035;-21
2023/12/16 09:31:42;;;;;;;1.48;1.00;;;;;;;;;;5075963;28;20021;-20
2023/12/16 09:34:09;;;;;;;1.90;1.40;;;;;;;;;;5076124;28;20036;-20
2023/12/16 09:36:35;;;;;;;1.90;1.70;;;;;;;;;;5075724;28;20024;-18
2023/12/16 09:39:02;;;;;;;1.65;1.35;;;;;;;;;;5075739;28;20029;-22
2023/12/16 09:41:29;;;;;;;1.73;1.38;;;;;;;;;;5075964;28;20039;-23
2023/12/16 09:43:55;;;;;;;2.80;1.88;;;;;;;;;;5075613;28;20032;-21
2023/12/16 09:46:25;;;;;;;1.48;1.27;;;;;;;;;;5075538;28;20427;-19
2023/12/16 09:48:51;;;;;;;2.38;2.00;;;;;;;;;;5075481;28;20035;-21
2023/12/16 09:51:17;;;;;;;1.67;1.50;;;;;;;;;;5075834;28;20031;-22
2023/12/16 09:53:44;;;;;;;2.08;1.55;;;;;;;;;;5075447;28;20025;-18
2023/12/16 09:56:13;;;;;;;1.80;1.50;;;;;;;;;;5075678;28;20035;-21
2023/12/16 09:58:43;;;;;;;2.42;1.50;;;;;;;;;;5076114;28;20111;-20
2023/12/16 10:01:10;;;;;;;2.08;1.52;;;;;;;;;;5075196;28;20032;-19
2023/12/16 10:03:40;;;;;;;1.67;1.52;;;;;;;;;;5076774;28;20142;-23
2023/12/16 10:06:07;;;;;;;3.35;2.08;;;;;;;;;;5074466;28;20105;-20
2023/12/16 10:08:33;;;;;;;1.67;1.33;;;;;;;;;;5074221;28;20528;-20
2023/12/16 10:11:01;;;;;;;2.00;1.80;;;;;;;;;;5075451;28;20175;-19
2023/12/16 10:13:27;;;;;;;2.60;1.42;;;;;;;;;;5075351;28;20024;-21
2023/12/16 10:15:54;;;;;;;2.13;1.75;;;;;;;;;;5075042;28;20025;-19
2023/12/16 10:18:20;;;;;;;2.53;1.80;;;;;;;;;;5075034;28;20028;-20
2023/12/16 10:20:46;;;;;;;1.85;1.50;;;;;;;;;;5075320;28;20025;-21
2023/12/16 10:23:15;;;;;;;2.47;1.70;;;;;;;;;;5075019;28;20025;-18
2023/12/16 10:25:42;;;;;;;1.83;1.38;;;;;;;;;;5074869;28;20046;-21
2023/12/16 10:28:08;;;;;;;1.92;1.75;;;;;;;;;;5074943;28;20021;-19
2023/12/16 10:30:34;;;;;;;2.10;1.90;;;;;;;;;;5074830;28;20088;-20
2023/12/16 10:33:04;;;;;;;2.75;2.50;;;;;;;;;;5074839;28;20034;-22
2023/12/16 10:35:31;;;;;;;2.45;1.60;;;;;;;;;;5074756;28;20039;-21
2023/12/16 10:37:57;;;;;;;1.90;1.38;;;;;;;;;;5075312;28;20112;-22
2023/12/16 10:40:23;;;;;;;2.95;1.73;;;;;;;;;;5074757;28;20021;-26
2023/12/16 10:42:50;;;;;;;2.55;1.60;;;;;;;;;;5075029;28;20382;-20
2023/12/16 10:45:16;;;;;;;2.72;1.30;;;;;;;;;;5074494;28;20035;-19
2023/12/16 10:47:42;;;;;;;2.65;1.67;;;;;;;;;;5074691;28;20090;-22
2023/12/16 10:50:09;;;;;;;2.08;1.63;;;;;;;;;;5074663;28;20032;-22
2023/12/16 10:52:40;;;;;;;3.13;2.15;;;;;;;;;;5074604;28;20089;-28
2023/12/16 10:55:09;;;;;;;1.95;1.50;;;;;;;;;;5073662;28;20032;-19
2023/12/16 10:57:48;;;;;;;2.42;1.75;;;;;;;;;;5074531;28;20040;-20
2023/12/16 11:00:20;;;;;;;6.35;2.10;;;;;;;;;;5074474;28;20021;-20
2023/12/16 11:03:06;;;;;;;3.83;1.70;;;;;;;;;;5074763;28;20526;-18
2023/12/16 11:05:36;;;;;;;2.20;1.60;;;;;;;;;;5074290;28;20129;-18
2023/12/16 11:08:03;;;;;;;3.50;2.08;;;;;;;;;;5074795;28;20504;-21
2023/12/16 11:10:32;;;;;;;1.90;1.45;;;;;;;;;;5074458;28;20024;-19
2023/12/16 11:13:05;;;;;;;2.65;1.42;;;;;;;;;;5074691;28;20024;-18
2023/12/16 11:15:34;;;;;;;2.30;1.95;;;;;;;;;;5073378;28;20089;-20
2023/12/16 11:18:11;;;;;;;3.13;1.88;;;;;;;;;;5076565;28;20420;-18
2023/12/16 11:20:39;;;;;;;2.47;2.08;;;;;;;;;;5078480;28;20039;-21
2023/12/16 11:23:06;;;;;;;4.75;2.55;;;;;;;;;;5078363;28;20041;-20
2023/12/16 11:25:34;;;;;;;2.85;1.58;;;;;;;;;;5078548;28;20078;-23
2023/12/16 11:28:02;;;;;;;2.85;2.10;;;;;;;;;;5078282;28;20448;-20
2023/12/16 11:30:35;;;;;;;1.92;1.30;;;;;;;;;;5078166;28;20036;-19
2023/12/16 11:33:01;;;;;;;2.28;1.30;;;;;;;;;;5078166;28;20056;-18
2023/12/16 11:35:37;;;;;;;3.20;1.70;;;;;;;;;;5078444;28;20048;-19
2023/12/16 11:38:03;;;;;;;1.77;1.67;;;;;;;;;;5078383;28;20038;-19
2023/12/16 11:40:42;;;;;;;1.98;1.77;;;;;;;;;;5078086;28;20308;-20
2023/12/16 11:43:09;;;;;;;2.20;1.38;;;;;;;;;;5078035;28;20020;-21
2023/12/16 11:45:39;;;;;;;2.78;1.80;;;;;;;;;;5077836;28;20364;-24
2023/12/16 11:48:06;;;;;;;1.70;1.60;;;;;;;;;;5077889;28;20455;-20
2023/12/16 11:50:34;;;;;;;2.10;1.58;;;;;;;;;;5077861;28;20094;-18
2023/12/16 11:53:01;;;;;;;2.63;1.65;;;;;;;;;;5078300;28;20022;-21
2023/12/16 11:55:27;;;;;;;1.83;1.60;;;;;;;;;;5077735;28;20032;-24
2023/12/16 11:57:54;;;;;;;2.83;1.83;;;;;;;;;;5077731;28;20103;-20
2023/12/16 12:00:21;;;;;;;2.15;1.80;;;;;;;;;;5077928;28;20099;-23
2023/12/16 12:02:51;;;;;;;2.30;1.80;;;;;;;;;;5077581;28;20161;-24
2023/12/16 12:05:17;;;;;;;2.50;1.60;;;;;;;;;;5077732;28;20048;-19
2023/12/16 12:07:43;;;;;;;1.77;1.40;;;;;;;;;;5077622;28;20440;-21
2023/12/16 12:10:10;;;;;;;1.92;1.70;;;;;;;;;;5077521;28;20063;-20
2023/12/16 12:12:36;;;;;;;2.00;1.65;;;;;;;;;;5077427;28;20028;-20
2023/12/16 12:15:03;;;;;;;3.42;1.95;;;;;;;;;;5077380;28;20024;-21
2023/12/16 12:17:29;;;;;;;1.70;1.38;;;;;;;;;;5077384;28;20324;-20
2023/12/16 12:19:55;;;;;;;2.35;1.75;;;;;;;;;;5077323;28;20035;-22
2023/12/16 12:22:22;;;;;;;1.70;1.20;;;;;;;;;;5077311;28;20099;-19
2023/12/16 12:24:49;;;;;;;2.53;1.50;;;;;;;;;;5077201;28;20590;-20
2023/12/16 12:27:15;;;;;;;2.20;1.60;;;;;;;;;;5077195;28;20102;-17
2023/12/16 12:29:54;;;;;;;2.53;1.70;;;;;;;;;;5075478;28;20024;-21
2023/12/16 12:32:20;;;;;;;4.43;1.85;;;;;;;;;;5077432;28;20398;-22
2023/12/16 12:34:56;;;;;;;2.10;1.60;;;;;;;;;;5077087;28;20025;-18
2023/12/16 12:37:23;;;;;;;2.38;1.48;;;;;;;;;;5077004;28;20072;-21
2023/12/16 12:39:50;;;;;;;2.33;1.42;;;;;;;;;;5076076;28;20033;-19
2023/12/16 12:42:16;;;;;;;2.42;1.58;;;;;;;;;;5076963;28;20036;-20
2023/12/16 12:44:53;;;;;;;2.85;2.00;;;;;;;;;;5076838;28;20063;-20
2023/12/16 12:47:30;;;;;;;2.58;2.38;;;;;;;;;;5077151;28;20459;-25
2023/12/16 12:49:56;;;;;;;2.03;1.40;;;;;;;;;;5076817;28;20021;-21
2023/12/16 12:52:38;;;;;;;2.25;1.67;;;;;;;;;;5077321;28;20036;-21
2023/12/16 12:55:05;;;;;;;2.97;1.90;;;;;;;;;;5076687;28;20017;-21
2023/12/16 12:57:32;;;;;;;2.78;1.60;;;;;;;;;;5076883;28;20024;-18
2023/12/16 13:00:03;;;;;;;2.97;1.48;;;;;;;;;;5076532;28;20021;-22
2023/12/16 13:02:29;;;;;;;4.10;2.22;;;;;;;;;;5077069;28;20099;-18
2023/12/16 13:04:55;;;;;;;2.22;1.70;;;;;;;;;;5076159;28;20037;-21
2023/12/16 13:07:21;;;;;;;1.63;1.52;;;;;;;;;;5076754;28;20020;-21
2023/12/16 13:09:48;;;;;;;2.63;1.58;;;;;;;;;;5076395;28;20017;-22
2023/12/16 13:12:14;;;;;;;2.00;1.63;;;;;;;;;;5076377;28;20047;-19
2023/12/16 13:14:44;;;;;;;2.45;1.58;;;;;;;;;;5076513;28;20332;-20
2023/12/16 13:17:10;;;;;;;2.88;1.77;;;;;;;;;;5076512;28;20340;-22
2023/12/16 13:19:36;;;;;;;1.98;1.70;;;;;;;;;;5076763;28;20024;-18
2023/12/16 13:22:03;;;;;;;2.00;1.60;;;;;;;;;;5076420;28;20367;-20
2023/12/16 13:24:30;;;;;;;3.08;1.50;;;;;;;;;;5076673;28;20032;-19
2023/12/16 13:26:59;;;;;;;3.33;2.28;;;;;;;;;;5076247;28;20347;-19
2023/12/16 13:29:26;;;;;;;1.85;1.45;;;;;;;;;;5076169;28;20016;-19
2023/12/16 13:31:56;;;;;;;1.67;1.40;;;;;;;;;;5076426;28;20029;-21
2023/12/16 13:34:23;;;;;;;1.95;1.50;;;;;;;;;;5075888;28;20064;-18
2023/12/16 13:36:50;;;;;;;1.77;1.40;;;;;;;;;;5076130;28;20028;-21
2023/12/16 13:39:16;;;;;;;2.35;1.58;;;;;;;;;;5075756;28;20040;-20
2023/12/16 13:41:42;;;;;;;1.95;1.50;;;;;;;;;;5074801;28;20348;-20
2023/12/16 13:44:08;;;;;;;3.47;1.98;;;;;;;;;;5074775;28;20028;-20
2023/12/16 13:46:36;;;;;;;3.03;2.20;;;;;;;;;;5075506;28;20035;-17
2023/12/16 13:49:04;;;;;;;2.25;1.40;;;;;;;;;;5076351;28;20031;-22
2023/12/16 13:51:30;;;;;;;1.65;1.30;;;;;;;;;;5075509;28;20082;-27
2023/12/16 13:53:57;;;;;;;4.65;1.52;;;;;;;;;;5075428;28;20031;-20
2023/12/16 13:56:23;;;;;;;2.15;1.35;;;;;;;;;;5075696;28;20037;-21
2023/12/16 13:58:49;;;;;;;1.60;1.40;;;;;;;;;;5075477;28;20025;-24
2023/12/16 14:01:16;;;;;;;2.55;1.70;;;;;;;;;;5075861;28;20029;-23
2023/12/16 14:03:49;;;;;;;1.98;1.77;;;;;;;;;;5113407;27;20903;-21
2023/12/16 14:06:15;;;;;;;2.90;1.58;;;;;;;;;;5112553;28;20039;-20
2023/12/16 14:08:42;;;;;;;3.10;2.13;;;;;;;;;;5112532;28;20073;-22
2023/12/16 14:11:08;;;;;;;1.38;1.27;;;;;;;;;;5112715;28;20500;-26
2023/12/16 14:13:34;;;;;;;1.85;1.40;;;;;;;;;;5112667;28;20080;-20
2023/12/16 14:16:00;;;;;;;2.17;1.65;;;;;;;;;;5112317;28;20032;-20
2023/12/16 14:18:27;;;;;;;2.00;1.20;;;;;;;;;;5112321;28;20024;-25
2023/12/16 14:20:54;;;;;;;1.92;1.58;;;;;;;;;;5112214;28;20036;-19
2023/12/16 14:23:20;;;;;;;2.35;1.60;;;;;;;;;;5112398;28;20032;-21
2023/12/16 14:25:46;;;;;;;1.98;1.77;;;;;;;;;;5112464;28;20331;-18
2023/12/16 14:28:12;;;;;;;2.70;1.33;;;;;;;;;;5112161;28;20024;-20
2023/12/16 14:30:38;;;;;;;2.40;1.70;;;;;;;;;;5112111;28;20023;-21
2023/12/16 14:33:04;;;;;;;2.20;1.77;;;;;;;;;;5112001;28;20016;-19
2023/12/16 14:35:31;;;;;;;1.75;1.58;;;;;;;;;;5111990;28;20020;-20
2023/12/16 14:37:57;;;;;;;1.92;1.20;;;;;;;;;;5111879;28;20031;-22
2023/12/16 14:40:23;;;;;;;2.15;1.88;;;;;;;;;;5112192;28;20041;-19